createdAt,value
2022-12-29T00:00:41.819Z,5.32
2022-12-29T00:03:12.829Z,5.33
2022-12-29T00:05:44.184Z,5.27
2022-12-29T00:08:18.578Z,5.31
2022-12-29T00:10:51.950Z,5.33
2022-12-29T00:13:37.038Z,5.28
2022-12-29T00:16:10.982Z,5.30
2022-12-29T00:18:41.351Z,5.31
2022-12-29T00:21:34.153Z,5.31
2022-12-29T00:24:23.166Z,5.32
2022-12-29T00:27:14.924Z,5.37
2022-12-29T00:29:57.439Z,5.35
2022-12-29T00:32:40.317Z,5.31
2022-12-29T00:35:13.999Z,5.36
2022-12-29T00:38:04.161Z,5.35
2022-12-29T00:40:47.537Z,5.35
2022-12-29T00:43:34.364Z,5.30
2022-12-29T00:46:05.942Z,5.30
2022-12-29T00:48:48.292Z,5.32
2022-12-29T00:51:18.493Z,5.33
2022-12-29T00:53:49.792Z,5.35
2022-12-29T00:56:21.755Z,5.32
2022-12-29T00:58:56.177Z,5.33
2022-12-29T01:01:26.404Z,5.32
2022-12-29T01:04:03.673Z,5.26
2022-12-29T01:06:35.564Z,5.32
2022-12-29T01:09:19.908Z,5.34
2022-12-29T01:11:52.361Z,5.37
2022-12-29T01:14:29.554Z,5.30
2022-12-29T01:17:01.499Z,5.41
2022-12-29T01:19:38.818Z,5.38
2022-12-29T01:22:08.947Z,5.37
2022-12-29T01:24:39.421Z,5.50
2022-12-29T01:27:09.503Z,5.46
2022-12-29T01:29:42.481Z,5.46
2022-12-29T01:32:14.210Z,5.53
2022-12-29T01:34:45.659Z,5.56
2022-12-29T01:37:15.829Z,5.60
2022-12-29T01:39:46.320Z,5.57
2022-12-29T01:42:22.205Z,5.57
2022-12-29T01:45:01.260Z,5.53
2022-12-29T01:47:39.796Z,5.53
2022-12-29T01:50:17.135Z,5.53
2022-12-29T01:53:00.380Z,5.58
2022-12-29T01:55:35.222Z,5.68
2022-12-29T01:58:09.568Z,5.64
2022-12-29T02:00:43.455Z,5.67
2022-12-29T02:03:18.249Z,5.64
2022-12-29T02:05:57.948Z,5.63
2022-12-29T02:08:35.027Z,5.67
2022-12-29T02:11:05.373Z,5.69
2022-12-29T02:13:38.243Z,5.70
2022-12-29T02:16:27.867Z,5.67
2022-12-29T02:19:18.671Z,5.71
2022-12-29T02:22:04.667Z,5.72
2022-12-29T02:25:00.504Z,5.76
2022-12-29T02:27:53.557Z,5.70
2022-12-29T02:30:47.725Z,5.76
2022-12-29T02:33:40.522Z,5.73
2022-12-29T02:36:26.920Z,5.75
2022-12-29T02:39:08.795Z,5.71
2022-12-29T02:41:54.376Z,5.74
2022-12-29T02:44:39.005Z,5.74
2022-12-29T02:47:20.653Z,5.64
2022-12-29T02:50:02.345Z,5.64
2022-12-29T02:52:42.123Z,5.68
2022-12-29T02:55:12.176Z,5.67
2022-12-29T02:57:44.640Z,5.73
2022-12-29T03:00:22.004Z,5.75
2022-12-29T03:03:28.842Z,5.79
2022-12-29T03:06:23.166Z,5.83
2022-12-29T03:09:06.818Z,5.88
2022-12-29T03:12:14.191Z,5.90
2022-12-29T03:15:14.126Z,6.04
2022-12-29T03:17:55.736Z,6.08
2022-12-29T03:20:44.206Z,6.18
2022-12-29T03:23:18.461Z,6.15
2022-12-29T03:25:55.136Z,6.11
2022-12-29T03:28:36.019Z,6.17
2022-12-29T03:31:11.490Z,6.19
2022-12-29T03:33:47.577Z,6.19
2022-12-29T03:36:30.456Z,6.22
2022-12-29T03:39:08.052Z,6.21
2022-12-29T03:41:41.575Z,6.36
2022-12-29T03:44:12.997Z,6.37
2022-12-29T03:46:43.648Z,6.44
2022-12-29T03:49:14.515Z,6.50
2022-12-29T03:51:51.722Z,6.44
2022-12-29T03:54:23.657Z,6.55
2022-12-29T03:56:56.361Z,6.52
2022-12-29T03:59:47.970Z,6.56
2022-12-29T04:02:18.811Z,6.55
2022-12-29T04:04:51.002Z,6.65
2022-12-29T04:07:24.046Z,6.66
2022-12-29T04:09:57.546Z,6.70
2022-12-29T04:12:32.839Z,6.69
2022-12-29T04:15:03.849Z,6.71
2022-12-29T04:17:36.735Z,6.75
2022-12-29T04:20:22.658Z,6.75
2022-12-29T04:23:04.220Z,6.79
2022-12-29T04:25:36.465Z,6.91
2022-12-29T04:28:08.963Z,6.88
2022-12-29T04:30:54.834Z,6.87
2022-12-29T04:33:28.999Z,6.80
2022-12-29T04:36:01.524Z,6.84
2022-12-29T04:38:36.460Z,6.84
2022-12-29T04:41:08.823Z,6.83
2022-12-29T04:43:41.941Z,6.82
2022-12-29T04:46:39.605Z,6.79
2022-12-29T04:49:20.855Z,6.80
2022-12-29T04:51:56.206Z,6.88
2022-12-29T04:54:29.826Z,6.86
2022-12-29T04:57:11.613Z,6.89
2022-12-29T04:59:42.982Z,6.92
2022-12-29T05:02:13.907Z,6.94
2022-12-29T05:04:50.921Z,6.91
2022-12-29T05:07:26.416Z,6.96
2022-12-29T05:10:00.771Z,6.97
2022-12-29T05:12:34.135Z,6.99
2022-12-29T05:15:05.967Z,7.02
2022-12-29T05:17:36.198Z,7.00
2022-12-29T05:20:07.396Z,6.98
2022-12-29T05:22:40.043Z,7.03
2022-12-29T05:25:14.743Z,7.07
2022-12-29T05:28:04.426Z,7.03
2022-12-29T05:30:45.070Z,7.09
2022-12-29T05:33:18.919Z,7.08
2022-12-29T05:35:51.546Z,7.08
2022-12-29T05:38:24.281Z,7.09
2022-12-29T05:40:57.572Z,7.04
2022-12-29T05:43:47.678Z,7.03
2022-12-29T05:46:43.246Z,6.99
2022-12-29T05:49:40.079Z,7.03
2022-12-29T05:52:34.199Z,7.06
2022-12-29T05:55:04.539Z,7.07
2022-12-29T05:57:39.479Z,7.08
2022-12-29T06:00:16.034Z,7.17
2022-12-29T06:02:51.615Z,7.14
2022-12-29T06:05:24.326Z,7.17
2022-12-29T06:07:56.987Z,7.10
2022-12-29T06:10:27.324Z,7.19
2022-12-29T06:13:12.398Z,7.18
2022-12-29T06:15:46.529Z,7.22
2022-12-29T06:18:20.110Z,7.18
2022-12-29T06:20:51.597Z,7.24
2022-12-29T06:23:25.490Z,7.27
2022-12-29T06:25:56.298Z,7.25
2022-12-29T06:28:29.527Z,7.24
2022-12-29T06:31:05.709Z,7.25
2022-12-29T06:33:35.765Z,7.24
2022-12-29T06:36:07.543Z,7.18
2022-12-29T06:38:38.699Z,7.23
2022-12-29T06:41:11.477Z,7.27
2022-12-29T06:43:50.665Z,7.25
2022-12-29T06:46:30.896Z,7.32
2022-12-29T06:49:02.623Z,7.29
2022-12-29T06:51:34.156Z,7.24
2022-12-29T06:54:06.376Z,7.20
2022-12-29T06:56:41.136Z,7.32
2022-12-29T06:59:14.490Z,7.32
2022-12-29T07:01:46.012Z,7.36
2022-12-29T07:04:17.671Z,7.35
2022-12-29T07:06:50.121Z,7.38
2022-12-29T07:09:20.497Z,7.45
2022-12-29T07:11:51.700Z,7.55
2022-12-29T07:14:28.405Z,7.58
2022-12-29T07:17:00.282Z,7.53
2022-12-29T07:19:32.488Z,7.53
2022-12-29T07:22:03.128Z,7.51
2022-12-29T07:24:33.117Z,7.48
2022-12-29T07:27:05.631Z,7.47
2022-12-29T07:29:40.352Z,7.55
2022-12-29T07:32:11.688Z,7.72
2022-12-29T07:34:42.778Z,7.86
2022-12-29T07:37:13.130Z,7.99
2022-12-29T07:39:43.534Z,8.08
2022-12-29T07:42:17.259Z,8.20
2022-12-29T07:44:57.568Z,8.38
2022-12-29T07:47:52.690Z,8.60
2022-12-29T07:50:23.840Z,9.00
2022-12-29T07:52:53.776Z,9.06
2022-12-29T07:55:26.463Z,9.45
2022-12-29T07:57:57.405Z,10.54
2022-12-29T08:00:30.115Z,11.69
2022-12-29T08:03:02.109Z,12.48
2022-12-29T08:05:32.456Z,12.83
2022-12-29T08:08:02.765Z,13.33
2022-12-29T08:10:33.509Z,13.62
2022-12-29T08:13:05.359Z,13.77
2022-12-29T08:15:38.682Z,14.32
2022-12-29T08:18:10.104Z,12.73
2022-12-29T08:20:41.885Z,13.20
2022-12-29T08:23:12.130Z,12.94
2022-12-29T08:25:43.541Z,13.57
2022-12-29T08:28:13.506Z,13.61
2022-12-29T08:30:46.484Z,13.49
2022-12-29T08:33:16.633Z,13.55
2022-12-29T08:35:46.766Z,14.55
2022-12-29T08:38:17.245Z,14.32
2022-12-29T08:40:48.957Z,13.39
2022-12-29T08:43:19.594Z,13.23
2022-12-29T08:45:52.339Z,13.05
2022-12-29T08:48:23.299Z,13.33
2022-12-29T08:50:55.593Z,13.46
2022-12-29T08:53:25.728Z,13.30
2022-12-29T08:56:04.975Z,12.98
2022-12-29T08:58:44.308Z,14.08
2022-12-29T09:01:17.404Z,14.97
2022-12-29T09:06:40.560Z,15.02
2022-12-29T09:09:11.418Z,14.54
2022-12-29T09:11:42.267Z,14.42
2022-12-29T09:14:12.998Z,15.01
2022-12-29T09:16:58.441Z,16.44
2022-12-29T09:19:30.185Z,14.72
2022-12-29T09:22:02.773Z,14.26
2022-12-29T09:24:35.584Z,13.86
2022-12-29T09:27:05.809Z,13.85
2022-12-29T09:29:35.896Z,13.94
2022-12-29T09:32:13.907Z,13.45
2022-12-29T09:34:47.855Z,13.30
2022-12-29T09:37:19.135Z,13.06
2022-12-29T09:39:54.146Z,13.06
2022-12-29T09:42:33.997Z,12.94
2022-12-29T09:45:17.222Z,12.72
2022-12-29T09:47:50.857Z,12.50
2022-12-29T09:50:28.532Z,12.19
2022-12-29T09:53:07.827Z,12.16
2022-12-29T09:55:42.560Z,12.12
2022-12-29T09:58:25.390Z,11.94
2022-12-29T10:01:02.557Z,11.91
2022-12-29T10:03:49.163Z,11.88
2022-12-29T10:06:26.591Z,11.81
2022-12-29T10:09:06.649Z,11.81
2022-12-29T10:11:58.327Z,11.68
2022-12-29T10:14:47.500Z,11.81
2022-12-29T10:17:33.759Z,11.85
2022-12-29T10:20:32.562Z,11.93
2022-12-29T10:23:19.466Z,11.96
2022-12-29T10:25:54.014Z,11.93
2022-12-29T10:28:27.664Z,12.12
2022-12-29T10:31:06.726Z,12.25
2022-12-29T10:33:43.440Z,12.41
2022-12-29T10:36:21.771Z,12.45
2022-12-29T10:39:04.481Z,12.55
2022-12-29T10:41:43.019Z,12.69
2022-12-29T10:44:19.689Z,12.77
2022-12-29T10:46:59.435Z,12.79
2022-12-29T10:49:33.460Z,12.89
2022-12-29T10:52:08.405Z,12.93
2022-12-29T10:54:49.312Z,12.83
2022-12-29T10:57:29.853Z,12.76
2022-12-29T11:00:00.738Z,12.78
2022-12-29T11:02:53.769Z,12.98
2022-12-29T11:05:32.691Z,13.02
2022-12-29T11:08:07.969Z,13.16
2022-12-29T11:10:42.114Z,13.45
2022-12-29T11:13:19.969Z,13.69
2022-12-29T11:15:55.049Z,14.06
2022-12-29T11:18:31.996Z,14.41
2022-12-29T11:21:06.207Z,14.83
2022-12-29T11:23:54.879Z,14.64
2022-12-29T11:26:31.945Z,14.97
2022-12-29T11:29:25.098Z,15.02
2022-12-29T11:31:59.110Z,14.75
2022-12-29T11:34:33.846Z,14.73
2022-12-29T11:37:08.491Z,14.59
2022-12-29T11:39:45.516Z,14.35
2022-12-29T11:42:20.359Z,14.25
2022-12-29T11:44:55.566Z,14.36
2022-12-29T11:47:33.220Z,14.48
2022-12-29T11:50:06.229Z,14.71
2022-12-29T11:52:40.636Z,14.56
2022-12-29T11:55:25.861Z,14.50
2022-12-29T11:58:02.736Z,14.39
2022-12-29T12:00:43.042Z,14.02
2022-12-29T12:03:22.580Z,14.02
2022-12-29T12:05:58.594Z,13.85
2022-12-29T12:08:41.120Z,13.85
2022-12-29T12:11:19.117Z,13.99
2022-12-29T12:14:02.579Z,13.91
2022-12-29T12:16:54.959Z,13.89
2022-12-29T12:19:36.574Z,14.03
2022-12-29T12:22:16.981Z,13.96
2022-12-29T12:24:53.695Z,14.05
2022-12-29T12:27:35.112Z,14.15
2022-12-29T12:30:09.715Z,13.94
2022-12-29T12:32:50.781Z,13.98
2022-12-29T12:35:35.370Z,14.12
2022-12-29T12:38:24.002Z,14.01
2022-12-29T12:41:09.350Z,13.89
2022-12-29T12:43:48.100Z,13.71
2022-12-29T12:46:45.391Z,13.83
2022-12-29T12:49:40.970Z,13.69
2022-12-29T12:52:26.708Z,13.69
2022-12-29T12:55:31.368Z,13.55
2022-12-29T12:58:13.666Z,13.51
2022-12-29T13:01:01.995Z,13.47
2022-12-29T13:03:48.745Z,13.43
2022-12-29T13:06:30.947Z,13.34
2022-12-29T13:09:28.888Z,13.49
2022-12-29T13:12:23.065Z,13.46
2022-12-29T13:15:09.183Z,13.40
2022-12-29T13:17:52.898Z,13.47
2022-12-29T13:20:34.383Z,13.45
2022-12-29T13:23:14.072Z,13.48
2022-12-29T13:25:54.498Z,13.39
2022-12-29T13:28:33.553Z,13.31
2022-12-29T13:31:15.864Z,13.44
2022-12-29T13:33:59.345Z,13.50
2022-12-29T13:36:37.784Z,13.46
2022-12-29T13:39:20.911Z,13.32
2022-12-29T13:41:56.661Z,13.34
2022-12-29T13:44:36.638Z,13.19
2022-12-29T13:47:22.646Z,13.32
2022-12-29T13:49:58.198Z,13.17
2022-12-29T13:52:40.915Z,13.24
2022-12-29T13:55:28.729Z,13.16
2022-12-29T13:58:08.803Z,13.20
2022-12-29T14:00:53.963Z,13.06
2022-12-29T14:03:49.157Z,13.39
2022-12-29T14:06:26.620Z,13.29
2022-12-29T14:08:59.613Z,13.16
2022-12-29T14:11:36.410Z,13.26
2022-12-29T14:14:17.936Z,13.25
2022-12-29T14:16:48.188Z,13.33
2022-12-29T14:19:23.414Z,13.19
2022-12-29T14:22:03.941Z,12.91
2022-12-29T14:24:44.204Z,12.81
2022-12-29T14:27:44.157Z,12.76
2022-12-29T14:30:43.862Z,12.66
2022-12-29T14:33:18.202Z,12.66
2022-12-29T14:35:53.259Z,12.56
2022-12-29T14:38:35.208Z,12.54
2022-12-29T14:41:30.780Z,12.51
2022-12-29T14:44:22.353Z,12.43
2022-12-29T14:47:01.577Z,12.34
2022-12-29T14:49:35.370Z,12.34
2022-12-29T14:52:17.546Z,12.25
2022-12-29T14:54:57.366Z,12.25
2022-12-29T14:57:36.855Z,12.22
2022-12-29T15:00:23.093Z,12.14
2022-12-29T15:03:03.833Z,12.12
2022-12-29T15:05:40.612Z,12.10
2022-12-29T15:08:11.347Z,12.05
2022-12-29T15:10:52.084Z,12.02
2022-12-29T15:13:26.900Z,12.01
2022-12-29T15:15:56.867Z,11.97
2022-12-29T15:18:32.891Z,11.85
2022-12-29T15:21:06.190Z,11.90
2022-12-29T15:23:38.602Z,11.94
2022-12-29T15:26:13.534Z,11.86
2022-12-29T15:28:45.653Z,11.79
2022-12-29T15:31:19.462Z,11.77
2022-12-29T15:33:54.441Z,11.76
2022-12-29T15:36:27.066Z,11.75
2022-12-29T15:38:57.774Z,11.67
2022-12-29T15:42:05.583Z,11.70
2022-12-29T15:44:41.533Z,11.69
2022-12-29T15:47:24.411Z,11.65
2022-12-29T15:50:01.567Z,11.60
2022-12-29T15:52:32.005Z,11.52
2022-12-29T15:55:06.226Z,11.43
2022-12-29T15:57:46.411Z,11.37
2022-12-29T16:00:28.130Z,11.45
2022-12-29T16:03:01.139Z,11.48
2022-12-29T16:05:37.316Z,11.38
2022-12-29T16:08:25.416Z,11.34
2022-12-29T16:10:57.463Z,11.33
2022-12-29T16:13:40.087Z,11.19
2022-12-29T16:16:20.911Z,11.29
2022-12-29T16:18:56.941Z,11.17
2022-12-29T16:21:34.274Z,11.31
2022-12-29T16:24:09.257Z,11.18
2022-12-29T16:26:41.318Z,11.18
2022-12-29T16:29:18.650Z,11.21
2022-12-29T16:32:01.947Z,11.27
2022-12-29T16:34:34.680Z,11.18
2022-12-29T16:37:09.037Z,11.21
2022-12-29T16:39:43.580Z,11.18
2022-12-29T16:42:44.351Z,11.18
2022-12-29T16:46:19.520Z,11.19
2022-12-29T16:48:54.783Z,11.17
2022-12-29T16:51:34.111Z,11.16
2022-12-29T16:54:08.434Z,11.11
2022-12-29T16:56:40.908Z,11.09
2022-12-29T16:59:33.077Z,11.02
2022-12-29T17:02:11.770Z,11.00
2022-12-29T17:04:42.929Z,10.98
2022-12-29T17:07:21.993Z,10.94
2022-12-29T17:09:54.484Z,10.94
2022-12-29T17:12:29.603Z,10.92
2022-12-29T17:15:03.191Z,10.84
2022-12-29T17:17:42.612Z,10.79
2022-12-29T17:20:22.592Z,10.75
2022-12-29T17:22:54.195Z,10.73
2022-12-29T17:25:34.240Z,10.68
2022-12-29T17:28:09.336Z,10.64
2022-12-29T17:30:47.509Z,10.71
2022-12-29T17:33:24.879Z,10.69
2022-12-29T17:35:55.843Z,10.67
2022-12-29T17:38:31.462Z,10.65
2022-12-29T17:41:02.607Z,10.67
2022-12-29T17:43:36.689Z,10.73
2022-12-29T17:46:13.049Z,10.75
2022-12-29T17:48:51.475Z,10.73
2022-12-29T17:51:24.729Z,10.64
2022-12-29T17:53:54.965Z,10.58
2022-12-29T17:56:24.811Z,10.60
2022-12-29T17:58:56.106Z,10.65
2022-12-29T18:01:31.031Z,10.68
2022-12-29T18:04:10.417Z,10.61
2022-12-29T18:06:43.902Z,10.55
2022-12-29T18:09:14.010Z,10.51
2022-12-29T18:11:46.112Z,10.51
2022-12-29T18:14:17.575Z,10.45
2022-12-29T18:16:47.951Z,10.30
2022-12-29T18:19:20.987Z,10.15
2022-12-29T18:21:51.253Z,10.15
2022-12-29T18:24:22.395Z,10.24
2022-12-29T18:26:56.399Z,10.36
2022-12-29T18:29:29.249Z,10.41
2022-12-29T18:32:02.752Z,10.37
2022-12-29T18:34:35.975Z,10.37
2022-12-29T18:37:07.038Z,10.31
2022-12-29T18:39:41.530Z,10.36
2022-12-29T18:42:20.935Z,10.37
2022-12-29T18:44:53.461Z,10.34
2022-12-29T18:47:23.978Z,10.33
2022-12-29T18:49:57.397Z,10.30
2022-12-29T18:52:28.729Z,10.25
2022-12-29T18:54:58.781Z,10.15
2022-12-29T18:57:30.729Z,10.10
2022-12-29T19:00:02.623Z,10.25
2022-12-29T19:02:33.507Z,10.27
2022-12-29T19:05:08.522Z,10.27
2022-12-29T19:07:38.675Z,10.36
2022-12-29T19:10:09.724Z,10.37
2022-12-29T19:12:40.009Z,10.36
2022-12-29T19:15:16.407Z,10.38
2022-12-29T19:17:46.697Z,10.38
2022-12-29T19:20:32.071Z,10.45
2022-12-29T19:23:06.310Z,10.47
2022-12-29T19:25:37.010Z,10.44
2022-12-29T19:28:09.079Z,10.38
2022-12-29T19:30:39.694Z,10.47
2022-12-29T19:33:10.526Z,10.43
2022-12-29T19:35:44.114Z,10.41
2022-12-29T19:38:15.746Z,10.42
2022-12-29T19:40:47.553Z,10.63
2022-12-29T19:43:18.402Z,10.51
2022-12-29T19:45:51.413Z,10.47
2022-12-29T19:48:25.873Z,10.42
2022-12-29T19:51:06.435Z,10.46
2022-12-29T19:53:37.466Z,10.46
2022-12-29T19:56:10.889Z,10.45
2022-12-29T19:58:47.576Z,10.42
2022-12-29T20:01:21.827Z,10.40
2022-12-29T20:03:53.953Z,10.34
2022-12-29T20:06:27.390Z,10.33
2022-12-29T20:09:00.173Z,10.30
2022-12-29T20:11:29.995Z,10.26
2022-12-29T20:14:01.051Z,10.17
2022-12-29T20:16:30.964Z,10.17
2022-12-29T20:19:04.556Z,10.18
2022-12-29T20:21:40.362Z,10.15
2022-12-29T20:24:10.754Z,10.15
2022-12-29T20:26:40.569Z,10.10
2022-12-29T20:29:11.432Z,10.01
2022-12-29T20:31:44.619Z,10.01
2022-12-29T20:34:15.662Z,9.95
2022-12-29T20:36:50.597Z,9.94
2022-12-29T20:39:22.952Z,9.92
2022-12-29T20:41:55.223Z,9.88
2022-12-29T20:44:26.023Z,9.77
2022-12-29T20:46:58.435Z,9.78
2022-12-29T20:49:30.745Z,9.73
2022-12-29T20:52:06.742Z,9.64
2022-12-29T20:54:39.726Z,9.64
2022-12-29T20:57:10.757Z,9.55
2022-12-29T20:59:40.758Z,9.57
2022-12-29T21:02:22.517Z,9.56
2022-12-29T21:05:22.878Z,9.58
2022-12-29T21:07:50.040Z,9.48
2022-12-29T21:10:21.606Z,9.50
2022-12-29T21:12:52.277Z,9.45
2022-12-29T21:15:22.964Z,9.83
2022-12-29T21:17:56.433Z,9.99
2022-12-29T21:20:32.870Z,9.79
2022-12-29T21:23:06.330Z,9.81
2022-12-29T21:25:41.225Z,9.84
2022-12-29T21:28:13.979Z,9.91
2022-12-29T21:30:45.344Z,9.78
2022-12-29T21:33:16.769Z,9.77
2022-12-29T21:35:46.794Z,9.74
2022-12-29T21:38:19.617Z,9.76
2022-12-29T21:40:49.481Z,9.77
2022-12-29T21:43:19.356Z,9.80
2022-12-29T21:45:50.176Z,9.73
2022-12-29T21:48:31.822Z,9.66
2022-12-29T21:51:26.967Z,9.62
2022-12-29T21:54:17.067Z,9.61
2022-12-29T21:56:52.782Z,9.61
2022-12-29T21:59:39.246Z,9.60
2022-12-29T22:02:34.740Z,9.65
2022-12-29T22:05:17.781Z,9.63
2022-12-29T22:08:00.670Z,9.68
2022-12-29T22:10:45.533Z,9.65
2022-12-29T22:13:16.962Z,9.71
2022-12-29T22:15:48.092Z,9.72
2022-12-29T22:18:19.648Z,9.73
2022-12-29T22:20:52.887Z,9.73
2022-12-29T22:23:29.947Z,9.76
2022-12-29T22:26:08.091Z,9.74
2022-12-29T22:28:39.598Z,9.73
2022-12-29T22:31:28.035Z,9.74
2022-12-29T22:33:59.300Z,9.70
2022-12-29T22:36:31.330Z,9.70
2022-12-29T22:39:01.721Z,9.74
2022-12-29T22:41:34.686Z,9.72
2022-12-29T22:44:09.537Z,9.64
2022-12-29T22:46:40.045Z,9.59
2022-12-29T22:49:10.232Z,9.55
2022-12-29T22:51:43.893Z,9.63
2022-12-29T22:54:16.418Z,9.67
2022-12-29T22:56:49.517Z,9.60
2022-12-29T22:59:21.417Z,9.79
2022-12-29T23:01:52.190Z,10.29
2022-12-29T23:05:01.705Z,10.18
2022-12-29T23:07:13.402Z,10.69
2022-12-29T23:09:43.576Z,11.00
2022-12-29T23:12:16.810Z,10.37
2022-12-29T23:14:47.020Z,10.31
2022-12-29T23:17:17.194Z,9.92
2022-12-29T23:19:48.274Z,9.82
2022-12-29T23:22:18.235Z,9.87
2022-12-29T23:24:49.247Z,10.17
2022-12-29T23:27:21.667Z,9.99
2022-12-29T23:29:51.949Z,9.94
2022-12-29T23:32:22.279Z,10.10
2022-12-29T23:34:52.110Z,10.03
2022-12-29T23:37:36.068Z,9.99
2022-12-29T23:40:07.445Z,10.06
2022-12-29T23:42:41.038Z,10.28
2022-12-29T23:45:15.197Z,10.15
2022-12-29T23:47:46.028Z,10.36
2022-12-29T23:50:18.058Z,10.30
2022-12-29T23:52:48.438Z,10.58
2022-12-29T23:55:19.143Z,10.42
2022-12-29T23:57:51.619Z,10.60
